sensor_id;sensor_type;location;lat;lon;timestamp;pressure;altitude;pressure_sealevel;temperature;humidity
64753;BME280;61095;52.454;16.948;2023-07-31T06:00:55;99966.03;;;25.11;48.18
64753;BME280;61095;52.454;16.948;2023-07-31T06:05:56;99969.81;;;25.18;47.90
64753;BME280;61095;52.454;16.948;2023-07-31T06:10:56;99972.66;;;25.16;47.53
64753;BME280;61095;52.454;16.948;2023-07-31T06:15:58;99966.72;;;25.13;47.13
64753;BME280;61095;52.454;16.948;2023-07-31T06:20:58;99966.34;;;25.08;46.94
64753;BME280;61095;52.454;16.948;2023-07-31T06:25:58;99962.56;;;25.01;46.88
64753;BME280;61095;52.454;16.948;2023-07-31T06:31:00;99961.94;;;24.89;46.76
64753;BME280;61095;52.454;16.948;2023-07-31T06:36:01;99963.53;;;24.82;47.34
64753;BME280;61095;52.454;16.948;2023-07-31T06:41:01;99958.72;;;24.76;47.21
64753;BME280;61095;52.454;16.948;2023-07-31T06:46:06;99956.47;;;24.71;47.13
64753;BME280;61095;52.454;16.948;2023-07-31T06:51:06;99948.38;;;24.71;46.86
64753;BME280;61095;52.454;16.948;2023-07-31T06:56:06;99947.56;;;24.61;47.39
64753;BME280;61095;52.454;16.948;2023-07-31T07:01:08;99962.75;;;24.62;47.34
64753;BME280;61095;52.454;16.948;2023-07-31T07:06:08;99946.88;;;24.59;47.06
64753;BME280;61095;52.454;16.948;2023-07-31T07:11:09;99950.63;;;24.48;47.22
64753;BME280;61095;52.454;16.948;2023-07-31T07:16:10;99949.16;;;24.54;47.26
64753;BME280;61095;52.454;16.948;2023-07-31T07:21:11;99944.59;;;24.64;47.18
64753;BME280;61095;52.454;16.948;2023-07-31T07:26:11;99958.63;;;24.68;47.13
64753;BME280;61095;52.454;16.948;2023-07-31T07:31:13;99953.16;;;24.77;46.90
64753;BME280;61095;52.454;16.948;2023-07-31T07:36:13;99953.16;;;24.77;46.67
64753;BME280;61095;52.454;16.948;2023-07-31T07:41:13;99951.63;;;24.75;46.88
64753;BME280;61095;52.454;16.948;2023-07-31T07:46:15;99958.03;;;24.74;46.83
64753;BME280;61095;52.454;16.948;2023-07-31T07:51:15;99964.72;;;24.70;47.05
64753;BME280;61095;52.454;16.948;2023-07-31T07:56:16;99975.81;;;24.67;47.11
64753;BME280;61095;52.454;16.948;2023-07-31T08:01:18;99971.78;;;24.43;47.07
64753;BME280;61095;52.454;16.948;2023-07-31T08:06:18;99973.25;;;24.38;47.14
64753;BME280;61095;52.454;16.948;2023-07-31T08:11:19;99976.66;;;24.30;47.45
64753;BME280;61095;52.454;16.948;2023-07-31T08:16:20;99970.59;;;24.18;47.42
64753;BME280;61095;52.454;16.948;2023-07-31T08:21:21;99969.34;;;24.13;47.80
64753;BME280;61095;52.454;16.948;2023-07-31T08:26:21;99972.34;;;24.10;47.83
64753;BME280;61095;52.454;16.948;2023-07-31T08:31:23;99967.50;;;24.13;47.93
64753;BME280;61095;52.454;16.948;2023-07-31T08:36:23;99963.91;;;24.22;47.35
64753;BME280;61095;52.454;16.948;2023-07-31T08:41:24;99963.31;;;24.28;47.55
64753;BME280;61095;52.454;16.948;2023-07-31T08:46:26;99962.31;;;24.29;47.20
64753;BME280;61095;52.454;16.948;2023-07-31T08:51:26;99956.66;;;24.23;47.03
64753;BME280;61095;52.454;16.948;2023-07-31T08:56:28;99951.88;;;24.17;47.20
64753;BME280;61095;52.454;16.948;2023-07-31T09:01:33;99955.56;;;24.16;47.19
64753;BME280;61095;52.454;16.948;2023-07-31T09:06:36;99952.13;;;24.23;47.06
64753;BME280;61095;52.454;16.948;2023-07-31T09:11:37;99954.22;;;24.29;47.17
64753;BME280;61095;52.454;16.948;2023-07-31T09:16:53;99948.97;;;24.28;47.07
64753;BME280;61095;52.454;16.948;2023-07-31T09:21:53;99941.34;;;24.23;46.74
64753;BME280;61095;52.454;16.948;2023-07-31T09:26:54;99937.88;;;24.03;46.85
64753;BME280;61095;52.454;16.948;2023-07-31T09:31:56;99934.06;;;23.96;47.28
64753;BME280;61095;52.454;16.948;2023-07-31T09:36:58;99935.47;;;23.91;47.63
64753;BME280;61095;52.454;16.948;2023-07-31T09:42:01;99945.41;;;23.81;48.46
64753;BME280;61095;52.454;16.948;2023-07-31T09:47:03;99953.38;;;23.72;49.02
64753;BME280;61095;52.454;16.948;2023-07-31T09:52:11;99962.31;;;23.63;49.96
64753;BME280;61095;52.454;16.948;2023-07-31T09:57:11;99955.53;;;23.50;50.21
64753;BME280;61095;52.454;16.948;2023-07-31T10:02:15;99955.94;;;23.35;50.69
64753;BME280;61095;52.454;16.948;2023-07-31T10:07:23;99953.69;;;23.31;51.51
64753;BME280;61095;52.454;16.948;2023-07-31T10:12:26;99945.75;;;23.29;51.86
64753;BME280;61095;52.454;16.948;2023-07-31T10:17:29;99938.94;;;23.35;52.08
64753;BME280;61095;52.454;16.948;2023-07-31T10:22:30;99935.69;;;23.31;52.33
64753;BME280;61095;52.454;16.948;2023-07-31T10:27:30;99927.78;;;23.39;52.50
64753;BME280;61095;52.454;16.948;2023-07-31T10:32:32;99920.38;;;23.32;52.51
64753;BME280;61095;52.454;16.948;2023-07-31T10:37:36;99921.06;;;23.24;52.43
64753;BME280;61095;52.454;16.948;2023-07-31T10:42:45;99912.56;;;23.19;52.97
64753;BME280;61095;52.454;16.948;2023-07-31T10:47:47;99915.13;;;23.21;53.16
64753;BME280;61095;52.454;16.948;2023-07-31T10:52:48;99905.47;;;23.18;52.94
64753;BME280;61095;52.454;16.948;2023-07-31T10:57:49;99905.91;;;23.23;53.66
64753;BME280;61095;52.454;16.948;2023-07-31T11:03:01;99904.34;;;23.21;53.53
64753;BME280;61095;52.454;16.948;2023-07-31T11:08:10;99895.84;;;23.25;53.85
64753;BME280;61095;52.454;16.948;2023-07-31T11:13:11;99894.75;;;23.28;53.81
64753;BME280;61095;52.454;16.948;2023-07-31T11:18:12;99888.06;;;23.22;53.71
64753;BME280;61095;52.454;16.948;2023-07-31T11:23:17;99887.38;;;23.30;53.71
64753;BME280;61095;52.454;16.948;2023-07-31T11:28:18;99875.31;;;23.34;53.85
64753;BME280;61095;52.454;16.948;2023-07-31T11:33:20;99872.78;;;23.32;53.70
64753;BME280;61095;52.454;16.948;2023-07-31T11:38:21;99865.53;;;23.33;53.88
64753;BME280;61095;52.454;16.948;2023-07-31T11:43:22;99859.59;;;23.29;53.65
64753;BME280;61095;52.454;16.948;2023-07-31T11:48:25;99856.75;;;23.31;54.03
64753;BME280;61095;52.454;16.948;2023-07-31T11:53:28;99848.97;;;23.28;54.24
64753;BME280;61095;52.454;16.948;2023-07-31T11:58:31;99849.09;;;23.26;53.93
64753;BME280;61095;52.454;16.948;2023-07-31T12:03:36;99847.53;;;23.24;54.16
64753;BME280;61095;52.454;16.948;2023-07-31T12:08:37;99852.78;;;23.16;54.30
64753;BME280;61095;52.454;16.948;2023-07-31T12:13:37;99846.25;;;23.18;54.54
64753;BME280;61095;52.454;16.948;2023-07-31T12:18:39;99846.97;;;23.30;54.39
64753;BME280;61095;52.454;16.948;2023-07-31T12:23:39;99833.53;;;23.39;54.18
64753;BME280;61095;52.454;16.948;2023-07-31T12:28:41;99837.78;;;23.42;54.27
64753;BME280;61095;52.454;16.948;2023-07-31T12:33:43;99827.25;;;23.49;54.16
64753;BME280;61095;52.454;16.948;2023-07-31T12:38:44;99830.63;;;23.60;53.54
64753;BME280;61095;52.454;16.948;2023-07-31T12:43:45;99818.13;;;23.69;53.21
64753;BME280;61095;52.454;16.948;2023-07-31T12:48:47;99827.31;;;23.76;52.93
64753;BME280;61095;52.454;16.948;2023-07-31T12:53:47;99820.19;;;23.85;52.85
64753;BME280;61095;52.454;16.948;2023-07-31T12:58:48;99812.66;;;23.98;52.38
64753;BME280;61095;52.454;16.948;2023-07-31T13:03:49;99806.19;;;24.09;52.18
64753;BME280;61095;52.454;16.948;2023-07-31T13:08:50;99809.44;;;24.12;51.84
64753;BME280;61095;52.454;16.948;2023-07-31T13:13:50;99803.50;;;24.09;51.66
64753;BME280;61095;52.454;16.948;2023-07-31T13:18:52;99788.19;;;24.09;51.82
64753;BME280;61095;52.454;16.948;2023-07-31T13:23:52;99787.72;;;24.14;51.77
64753;BME280;61095;52.454;16.948;2023-07-31T13:28:52;99774.78;;;24.17;51.56
64753;BME280;61095;52.454;16.948;2023-07-31T13:33:54;99777.88;;;24.22;51.67
64753;BME280;61095;52.454;16.948;2023-07-31T13:38:54;99775.56;;;24.27;51.53
64753;BME280;61095;52.454;16.948;2023-07-31T13:43:55;99772.03;;;24.27;51.77
64753;BME280;61095;52.454;16.948;2023-07-31T13:48:57;99760.38;;;24.26;51.76
64753;BME280;61095;52.454;16.948;2023-07-31T13:53:57;99764.38;;;24.22;51.98
64753;BME280;61095;52.454;16.948;2023-07-31T13:58:57;99771.09;;;24.18;52.13
64753;BME280;61095;52.454;16.948;2023-07-31T14:03:59;99777.47;;;24.17;52.63
64753;BME280;61095;52.454;16.948;2023-07-31T14:09:03;99763.00;;;24.18;52.87
64753;BME280;61095;52.454;16.948;2023-07-31T14:14:03;99764.63;;;24.29;52.57
64753;BME280;61095;52.454;16.948;2023-07-31T14:19:05;99757.88;;;24.43;52.59
64753;BME280;61095;52.454;16.948;2023-07-31T14:24:05;99747.47;;;24.48;52.06
64753;BME280;61095;52.454;16.948;2023-07-31T14:29:05;99740.75;;;24.52;51.76
64753;BME280;61095;52.454;16.948;2023-07-31T14:34:07;99737.13;;;24.61;51.62
64753;BME280;61095;52.454;16.948;2023-07-31T14:39:07;99727.34;;;24.78;51.00
64753;BME280;61095;52.454;16.948;2023-07-31T14:44:08;99726.75;;;24.84;50.77
64753;BME280;61095;52.454;16.948;2023-07-31T14:49:10;99721.88;;;24.87;50.36
64753;BME280;61095;52.454;16.948;2023-07-31T14:54:10;99715.72;;;25.03;50.20
64753;BME280;61095;52.454;16.948;2023-07-31T14:59:10;99715.13;;;25.17;49.89
64753;BME280;61095;52.454;16.948;2023-07-31T15:04:12;99705.31;;;25.34;49.51
64753;BME280;61095;52.454;16.948;2023-07-31T15:09:12;99695.25;;;25.44;49.32
64753;BME280;61095;52.454;16.948;2023-07-31T15:14:13;99692.75;;;25.59;48.42
64753;BME280;61095;52.454;16.948;2023-07-31T15:19:15;99693.13;;;25.64;47.94
64753;BME280;61095;52.454;16.948;2023-07-31T15:24:16;99692.09;;;25.65;47.60
64753;BME280;61095;52.454;16.948;2023-07-31T15:29:16;99678.94;;;25.70;47.29
64753;BME280;61095;52.454;16.948;2023-07-31T15:34:18;99681.81;;;25.69;47.17
64753;BME280;61095;52.454;16.948;2023-07-31T15:39:18;99676.41;;;25.69;46.92
64753;BME280;61095;52.454;16.948;2023-07-31T15:44:18;99671.69;;;25.71;46.85
64753;BME280;61095;52.454;16.948;2023-07-31T15:49:20;99671.25;;;25.83;46.22
64753;BME280;61095;52.454;16.948;2023-07-31T15:54:20;99669.72;;;25.81;45.81
64753;BME280;61095;52.454;16.948;2023-07-31T15:59:21;99670.22;;;25.84;45.07
64753;BME280;61095;52.454;16.948;2023-07-31T16:04:22;99669.91;;;25.87;45.07
64753;BME280;61095;52.454;16.948;2023-07-31T16:09:23;99661.44;;;25.90;44.66
64753;BME280;61095;52.454;16.948;2023-07-31T16:14:23;99650.97;;;25.87;44.64
64753;BME280;61095;52.454;16.948;2023-07-31T16:19:25;99646.25;;;25.89;44.34
64753;BME280;61095;52.454;16.948;2023-07-31T16:24:26;99648.09;;;25.89;44.08
64753;BME280;61095;52.454;16.948;2023-07-31T16:29:26;99638.13;;;25.89;44.07
64753;BME280;61095;52.454;16.948;2023-07-31T16:34:28;99642.22;;;25.94;44.26
64753;BME280;61095;52.454;16.948;2023-07-31T16:39:28;99644.44;;;25.98;44.17
64753;BME280;61095;52.454;16.948;2023-07-31T16:44:28;99658.97;;;25.97;44.22
64753;BME280;61095;52.454;16.948;2023-07-31T16:49:30;99657.94;;;25.98;44.13
64753;BME280;61095;52.454;16.948;2023-07-31T16:54:31;99644.44;;;25.98;44.20
64753;BME280;61095;52.454;16.948;2023-07-31T16:59:31;99638.50;;;25.95;44.06
64753;BME280;61095;52.454;16.948;2023-07-31T17:04:33;99628.16;;;25.90;44.14
64753;BME280;61095;52.454;16.948;2023-07-31T17:09:33;99636.94;;;25.84;44.05
64753;BME280;61095;52.454;16.948;2023-07-31T17:14:34;99643.53;;;25.81;44.27
64753;BME280;61095;52.454;16.948;2023-07-31T17:19:35;99637.09;;;25.74;44.32
64753;BME280;61095;52.454;16.948;2023-07-31T17:24:36;99642.50;;;25.74;44.43
64753;BME280;61095;52.454;16.948;2023-07-31T17:29:36;99649.59;;;25.75;44.51
64753;BME280;61095;52.454;16.948;2023-07-31T17:34:38;99651.59;;;25.73;44.59
64753;BME280;61095;52.454;16.948;2023-07-31T17:39:38;99651.91;;;25.70;44.62
64753;BME280;61095;52.454;16.948;2023-07-31T17:44:39;99650.41;;;25.68;44.55
64753;BME280;61095;52.454;16.948;2023-07-31T17:49:41;99637.22;;;25.65;44.47
64753;BME280;61095;52.454;16.948;2023-07-31T17:54:41;99640.09;;;25.63;44.45
64753;BME280;61095;52.454;16.948;2023-07-31T17:59:42;99649.69;;;25.57;44.40
64753;BME280;61095;52.454;16.948;2023-07-31T18:04:43;99658.97;;;25.55;44.69
64753;BME280;61095;52.454;16.948;2023-07-31T18:09:44;99638.03;;;25.49;44.53
64753;BME280;61095;52.454;16.948;2023-07-31T18:14:44;99638.69;;;25.43;44.35
64753;BME280;61095;52.454;16.948;2023-07-31T18:19:46;99644.94;;;25.43;44.45
64753;BME280;61095;52.454;16.948;2023-07-31T18:24:46;99622.97;;;25.38;44.39
64753;BME280;61095;52.454;16.948;2023-07-31T18:29:47;99625.16;;;25.35;44.45
64753;BME280;61095;52.454;16.948;2023-07-31T18:34:48;99621.25;;;25.29;44.21
64753;BME280;61095;52.454;16.948;2023-07-31T18:39:49;99614.59;;;25.23;44.39
64753;BME280;61095;52.454;16.948;2023-07-31T18:44:49;99603.41;;;25.18;44.43
64753;BME280;61095;52.454;16.948;2023-07-31T18:49:51;99604.25;;;25.11;44.51
64753;BME280;61095;52.454;16.948;2023-07-31T18:54:51;99599.50;;;25.05;44.68
64753;BME280;61095;52.454;16.948;2023-07-31T18:59:51;99604.53;;;25.00;44.75
64753;BME280;61095;52.454;16.948;2023-07-31T19:04:53;99598.28;;;24.99;44.86
64753;BME280;61095;52.454;16.948;2023-07-31T19:09:54;99596.91;;;24.95;45.09
64753;BME280;61095;52.454;16.948;2023-07-31T19:14:54;99594.38;;;24.93;45.03
64753;BME280;61095;52.454;16.948;2023-07-31T19:19:56;99583.38;;;24.87;44.95
64753;BME280;61095;52.454;16.948;2023-07-31T19:24:56;99578.09;;;24.77;45.19
64753;BME280;61095;52.454;16.948;2023-07-31T19:29:56;99575.03;;;24.72;45.36
64753;BME280;61095;52.454;16.948;2023-07-31T19:34:58;99571.63;;;24.70;45.88
64753;BME280;61095;52.454;16.948;2023-07-31T19:39:59;99569.63;;;24.72;45.71
64753;BME280;61095;52.454;16.948;2023-07-31T19:44:59;99563.22;;;24.73;45.89
64753;BME280;61095;52.454;16.948;2023-07-31T19:50:01;99552.59;;;24.72;45.67
64753;BME280;61095;52.454;16.948;2023-07-31T19:55:01;99546.50;;;24.70;45.92
64753;BME280;61095;52.454;16.948;2023-07-31T20:00:02;99548.53;;;24.68;45.71
64753;BME280;61095;52.454;16.948;2023-07-31T20:05:05;99541.88;;;24.62;46.07
64753;BME280;61095;52.454;16.948;2023-07-31T20:10:06;99533.28;;;24.58;45.90
64753;BME280;61095;52.454;16.948;2023-07-31T20:15:17;99538.66;;;24.58;46.16
64753;BME280;61095;52.454;16.948;2023-07-31T20:20:19;99539.78;;;24.48;46.11
64753;BME280;61095;52.454;16.948;2023-07-31T20:25:20;99535.03;;;24.42;46.39
64753;BME280;61095;52.454;16.948;2023-07-31T20:30:20;99528.28;;;24.38;46.15
64753;BME280;61095;52.454;16.948;2023-07-31T20:35:22;99521.72;;;24.40;46.74
64753;BME280;61095;52.454;16.948;2023-07-31T20:40:24;99530.66;;;24.41;46.83
64753;BME280;61095;52.454;16.948;2023-07-31T20:45:26;99525.75;;;24.36;46.88
64753;BME280;61095;52.454;16.948;2023-07-31T20:50:28;99511.72;;;24.32;46.92
64753;BME280;61095;52.454;16.948;2023-07-31T20:55:28;99508.31;;;24.30;47.03
64753;BME280;61095;52.454;16.948;2023-07-31T21:00:32;99493.84;;;24.31;47.44
64753;BME280;61095;52.454;16.948;2023-07-31T21:05:33;99499.78;;;24.35;47.53
64753;BME280;61095;52.454;16.948;2023-07-31T21:10:37;99489.31;;;24.32;47.65
64753;BME280;61095;52.454;16.948;2023-07-31T21:15:41;99487.75;;;24.29;47.71
64753;BME280;61095;52.454;16.948;2023-07-31T21:20:47;99479.47;;;24.23;47.83
64753;BME280;61095;52.454;16.948;2023-07-31T21:25:48;99488.06;;;24.26;47.75
64753;BME280;61095;52.454;16.948;2023-07-31T21:30:48;99484.38;;;24.27;47.72
64753;BME280;61095;52.454;16.948;2023-07-31T21:35:50;99484.53;;;24.26;47.67
64753;BME280;61095;52.454;16.948;2023-07-31T21:40:50;99492.63;;;24.26;47.74
64753;BME280;61095;52.454;16.948;2023-07-31T21:45:50;99489.75;;;24.27;47.77
64753;BME280;61095;52.454;16.948;2023-07-31T21:50:52;99476.97;;;24.29;47.89
64753;BME280;61095;52.454;16.948;2023-07-31T21:55:53;99479.50;;;24.31;47.60
